createdAt,value
2024-02-23T00:01:59.363Z,75.30
2024-02-23T00:04:26.954Z,75.20
2024-02-23T00:06:54.716Z,73.90
2024-02-23T00:09:22.408Z,74.50
2024-02-23T00:11:50.774Z,73.60
2024-02-23T00:14:19.682Z,73.80
2024-02-23T00:16:48.064Z,73.80
2024-02-23T00:19:17.878Z,72.30
2024-02-23T00:21:48.791Z,72.80
2024-02-23T00:24:17.606Z,71.30
2024-02-23T00:26:45.869Z,69.90
2024-02-23T00:29:13.577Z,69.60
2024-02-23T00:31:42.195Z,70.60
2024-02-23T00:34:14.349Z,70.10
2024-02-23T00:36:43.073Z,69.90
2024-02-23T00:39:10.714Z,69.90
2024-02-23T00:41:38.474Z,69.70
2024-02-23T00:44:06.682Z,68.50
2024-02-23T00:46:35.127Z,68.20
2024-02-23T00:49:03.593Z,68.30
2024-02-23T00:51:31.279Z,69.20
2024-02-23T00:53:58.821Z,67.90
2024-02-23T00:56:30.086Z,68.50
2024-02-23T00:59:03.715Z,68.30
2024-02-23T01:01:33.099Z,67.80
2024-02-23T01:04:00.669Z,68.20
2024-02-23T01:06:29.516Z,68.10
2024-02-23T01:08:57.340Z,67.50
2024-02-23T01:11:25.084Z,68.30
2024-02-23T01:13:52.673Z,67.70
2024-02-23T01:16:20.232Z,66.90
2024-02-23T01:18:48.533Z,67.60
2024-02-23T01:21:16.626Z,67.70
2024-02-23T01:23:44.192Z,67.20
2024-02-23T01:26:11.778Z,67.50
2024-02-23T01:28:39.318Z,68.20
2024-02-23T01:31:11.825Z,67.60
2024-02-23T01:33:40.751Z,67.60
2024-02-23T01:36:09.133Z,67.80
2024-02-23T01:38:36.824Z,68.40
2024-02-23T01:41:05.526Z,68.70
2024-02-23T01:43:33.149Z,68.50
2024-02-23T01:46:00.983Z,68.40
2024-02-23T01:48:28.755Z,68.50
2024-02-23T01:50:57.091Z,68.70
2024-02-23T01:53:27.002Z,68.90
2024-02-23T01:55:55.535Z,69.50
2024-02-23T01:58:23.200Z,70.20
2024-02-23T02:00:50.773Z,71.30
2024-02-23T02:03:18.436Z,71.50
2024-02-23T02:05:46.695Z,72.40
2024-02-23T02:08:14.311Z,72.60
2024-02-23T02:10:43.684Z,73.20
2024-02-23T02:13:11.287Z,73.50
2024-02-23T02:15:38.996Z,74.10
2024-02-23T02:18:06.771Z,73.90
2024-02-23T02:20:36.872Z,74.30
2024-02-23T02:23:05.059Z,75.10
2024-02-23T02:25:32.620Z,75.30
2024-02-23T02:28:00.271Z,75.50
2024-02-23T02:30:27.890Z,75.30
2024-02-23T02:32:55.568Z,75.10
2024-02-23T02:35:23.173Z,75.20
2024-02-23T02:37:50.803Z,74.90
2024-02-23T02:40:18.381Z,74.50
2024-02-23T02:42:45.929Z,75.10
2024-02-23T02:45:13.627Z,73.70
2024-02-23T02:47:41.296Z,74.60
2024-02-23T02:50:10.242Z,74.30
2024-02-23T02:52:38.240Z,74.30
2024-02-23T02:55:06.087Z,72.40
2024-02-23T02:57:33.725Z,73.10
2024-02-23T03:00:01.372Z,73.00
2024-02-23T03:02:29.094Z,72.00
2024-02-23T03:04:56.815Z,71.70
2024-02-23T03:07:24.465Z,70.40
2024-02-23T03:09:52.111Z,70.50
2024-02-23T03:12:19.747Z,70.60
2024-02-23T03:14:47.725Z,69.60
2024-02-23T03:17:15.365Z,69.70
2024-02-23T03:19:43.172Z,69.60
2024-02-23T03:22:10.906Z,69.10
2024-02-23T03:24:38.924Z,67.80
2024-02-23T03:27:06.568Z,68.00
2024-02-23T03:29:34.398Z,67.30
2024-02-23T03:32:02.804Z,68.20
2024-02-23T03:34:30.492Z,65.00
2024-02-23T03:36:59.448Z,67.00
2024-02-23T03:39:27.053Z,66.40
2024-02-23T03:41:54.583Z,67.00
2024-02-23T03:44:22.281Z,67.70
2024-02-23T03:46:50.882Z,67.70
2024-02-23T03:49:18.527Z,67.00
2024-02-23T03:51:46.457Z,67.00
2024-02-23T03:54:14.076Z,66.20
2024-02-23T03:56:42.700Z,66.20
2024-02-23T03:59:11.532Z,66.00
2024-02-23T04:01:42.027Z,66.50
2024-02-23T04:04:09.754Z,66.00
2024-02-23T04:06:37.853Z,65.70
2024-02-23T04:09:06.583Z,64.20
2024-02-23T04:11:34.515Z,65.30
2024-02-23T04:14:02.983Z,64.50
2024-02-23T04:16:30.694Z,64.00
2024-02-23T04:18:58.506Z,63.90
2024-02-23T04:21:26.704Z,63.80
2024-02-23T04:23:54.251Z,63.50
2024-02-23T04:26:21.915Z,63.20
2024-02-23T04:28:49.686Z,63.20
2024-02-23T04:31:17.286Z,61.80
2024-02-23T04:33:44.865Z,62.70
2024-02-23T04:36:12.420Z,63.00
2024-02-23T04:38:39.976Z,62.20
2024-02-23T04:41:08.299Z,62.60
2024-02-23T04:43:36.127Z,61.60
2024-02-23T04:46:04.024Z,61.20
2024-02-23T04:48:34.183Z,61.60
2024-02-23T04:51:01.752Z,61.30
2024-02-23T04:53:29.853Z,60.90
2024-02-23T04:55:57.496Z,61.10
2024-02-23T04:58:25.128Z,61.30
2024-02-23T05:00:52.933Z,61.00
2024-02-23T05:03:20.489Z,61.00
2024-02-23T05:05:49.568Z,60.70
2024-02-23T05:08:17.372Z,60.80
2024-02-23T05:10:44.987Z,60.70
2024-02-23T05:13:12.563Z,59.80
2024-02-23T05:15:40.142Z,60.60
2024-02-23T05:18:07.991Z,61.30
2024-02-23T05:20:35.671Z,61.10
2024-02-23T05:23:03.867Z,60.80
2024-02-23T05:25:31.400Z,60.70
2024-02-23T05:27:58.962Z,61.20
2024-02-23T05:30:28.326Z,60.50
2024-02-23T05:32:56.383Z,61.70
2024-02-23T05:35:24.039Z,60.90
2024-02-23T05:37:51.661Z,61.00
2024-02-23T05:40:19.387Z,61.70
2024-02-23T05:42:47.532Z,61.90
2024-02-23T05:45:15.170Z,61.30
2024-02-23T05:47:46.166Z,61.80
2024-02-23T05:50:16.252Z,61.90
2024-02-23T05:52:44.052Z,61.90
2024-02-23T05:55:11.723Z,61.90
2024-02-23T05:57:39.289Z,61.70
2024-02-23T06:00:08.584Z,61.60
2024-02-23T06:02:40.145Z,62.10
2024-02-23T06:05:09.248Z,61.20
2024-02-23T06:07:37.922Z,62.20
2024-02-23T06:10:06.460Z,62.40
2024-02-23T06:12:34.060Z,62.10
2024-02-23T06:15:01.713Z,62.60
2024-02-23T06:17:29.468Z,63.00
2024-02-23T06:19:59.971Z,63.20
2024-02-23T06:22:27.563Z,63.50
2024-02-23T06:24:55.115Z,63.90
2024-02-23T06:27:23.022Z,64.20
2024-02-23T06:29:51.243Z,64.80
2024-02-23T06:32:18.946Z,64.80
2024-02-23T06:34:47.372Z,65.00
2024-02-23T06:37:14.987Z,65.00
2024-02-23T06:39:43.176Z,65.20
2024-02-23T06:42:10.916Z,65.00
2024-02-23T06:44:38.548Z,65.40
2024-02-23T06:47:07.911Z,65.70
2024-02-23T06:49:35.585Z,65.80
2024-02-23T06:52:03.345Z,65.80
2024-02-23T06:54:30.901Z,66.00
2024-02-23T06:56:58.893Z,66.10
2024-02-23T06:59:26.524Z,66.50
2024-02-23T07:01:54.899Z,66.50
2024-02-23T07:04:22.558Z,66.70
2024-02-23T07:06:50.144Z,66.90
2024-02-23T07:09:17.785Z,66.70
2024-02-23T07:11:46.712Z,66.80
2024-02-23T07:14:15.502Z,66.80
2024-02-23T07:16:43.418Z,66.80
2024-02-23T07:19:11.438Z,67.10
2024-02-23T07:21:42.393Z,67.30
2024-02-23T07:24:11.250Z,68.00
2024-02-23T07:26:39.160Z,67.40
2024-02-23T07:29:08.521Z,68.00
2024-02-23T07:31:36.213Z,68.60
2024-02-23T07:34:04.114Z,69.20
2024-02-23T07:36:31.908Z,69.50
2024-02-23T07:38:59.684Z,69.70
2024-02-23T07:41:27.601Z,69.70
2024-02-23T07:43:55.182Z,69.80
2024-02-23T07:46:26.348Z,70.00
2024-02-23T07:48:55.443Z,70.10
2024-02-23T07:51:23.235Z,70.50
2024-02-23T07:53:50.801Z,70.60
2024-02-23T07:56:18.835Z,71.20
2024-02-23T07:58:46.473Z,71.00
2024-02-23T08:01:15.762Z,71.10
2024-02-23T08:03:44.214Z,70.90
2024-02-23T08:06:14.106Z,70.60
2024-02-23T08:08:41.901Z,70.40
2024-02-23T08:11:09.603Z,70.30
2024-02-23T08:13:37.227Z,70.60
2024-02-23T08:16:05.101Z,71.30
2024-02-23T08:18:33.509Z,70.70
2024-02-23T08:21:03.826Z,71.00
2024-02-23T08:23:31.651Z,70.80
2024-02-23T08:25:59.632Z,71.00
2024-02-23T08:28:27.379Z,71.10
2024-02-23T08:30:55.059Z,71.20
2024-02-23T08:33:22.687Z,71.20
2024-02-23T08:35:50.445Z,71.40
2024-02-23T08:38:19.641Z,70.80
2024-02-23T08:40:47.513Z,70.60
2024-02-23T08:43:15.753Z,70.40
2024-02-23T08:45:43.383Z,70.10
2024-02-23T08:48:16.013Z,69.50
2024-02-23T08:50:43.679Z,69.00
2024-02-23T08:53:11.633Z,68.70
2024-02-23T08:55:39.273Z,68.30
2024-02-23T08:58:10.627Z,68.50
2024-02-23T09:00:38.198Z,68.90
2024-02-23T09:03:06.291Z,68.90
2024-02-23T09:05:33.982Z,69.60
2024-02-23T09:08:01.714Z,70.00
2024-02-23T09:10:29.300Z,70.30
2024-02-23T09:12:56.837Z,70.50
2024-02-23T09:15:24.424Z,71.10
2024-02-23T09:17:52.042Z,71.50
2024-02-23T09:20:19.652Z,71.50
2024-02-23T09:22:47.218Z,71.00
2024-02-23T09:25:14.972Z,70.10
2024-02-23T09:27:44.871Z,69.90
2024-02-23T09:30:14.318Z,70.20
2024-02-23T09:32:42.639Z,70.00
2024-02-23T09:35:10.431Z,69.40
2024-02-23T09:37:38.067Z,68.70
2024-02-23T09:40:07.101Z,68.30
2024-02-23T09:42:36.819Z,68.00
2024-02-23T09:45:06.014Z,68.30
2024-02-23T09:47:33.724Z,68.80
2024-02-23T09:50:04.943Z,67.90
2024-02-23T09:52:33.720Z,68.00
2024-02-23T09:55:01.313Z,67.60
2024-02-23T09:57:29.026Z,67.20
2024-02-23T09:59:57.057Z,66.20
2024-02-23T10:02:24.879Z,65.80
2024-02-23T10:04:55.294Z,65.60
2024-02-23T10:07:23.023Z,65.50
2024-02-23T10:09:50.601Z,64.80
2024-02-23T10:12:19.214Z,64.70
2024-02-23T10:14:46.978Z,64.30
2024-02-23T10:17:14.639Z,64.50
2024-02-23T10:19:42.280Z,64.20
2024-02-23T10:22:10.639Z,63.50
2024-02-23T10:24:38.348Z,63.80
2024-02-23T10:27:05.924Z,63.40
2024-02-23T10:29:33.499Z,63.50
2024-02-23T10:32:04.758Z,63.00
2024-02-23T10:34:32.816Z,63.60
2024-02-23T10:37:00.986Z,64.40
2024-02-23T10:39:31.776Z,63.30
2024-02-23T10:42:04.941Z,63.00
2024-02-23T10:44:33.011Z,63.00
2024-02-23T10:47:01.652Z,62.60
2024-02-23T10:49:29.453Z,63.10
2024-02-23T10:51:58.034Z,62.80
2024-02-23T10:54:27.324Z,63.50
2024-02-23T10:56:56.883Z,61.50
2024-02-23T10:59:25.262Z,61.80
2024-02-23T11:01:55.666Z,61.50
2024-02-23T11:04:23.861Z,61.60
2024-02-23T11:06:59.473Z,62.30
2024-02-23T11:09:27.461Z,60.90
2024-02-23T11:11:56.586Z,61.50
2024-02-23T11:14:38.711Z,60.70
2024-02-23T11:17:07.096Z,60.90
2024-02-23T11:19:36.906Z,61.20
2024-02-23T11:22:06.589Z,60.30
2024-02-23T11:24:35.428Z,60.70
2024-02-23T11:27:10.123Z,60.00
2024-02-23T11:29:40.715Z,60.20
2024-02-23T11:32:16.698Z,61.10
2024-02-23T11:34:59.320Z,59.20
2024-02-23T11:37:31.015Z,58.90
2024-02-23T11:39:59.485Z,59.90
2024-02-23T11:42:28.363Z,59.00
2024-02-23T11:44:56.048Z,59.50
2024-02-23T11:47:23.679Z,59.90
2024-02-23T11:49:51.277Z,59.60
2024-02-23T11:52:19.012Z,59.40
2024-02-23T11:54:47.244Z,59.20
2024-02-23T11:57:15.598Z,58.90
2024-02-23T11:59:43.274Z,59.30
2024-02-23T12:02:10.948Z,58.90
2024-02-23T12:04:38.654Z,59.30
2024-02-23T12:07:06.242Z,59.60
2024-02-23T12:09:33.875Z,58.70
2024-02-23T12:12:01.752Z,58.70
2024-02-23T12:14:29.387Z,58.50
2024-02-23T12:17:22.474Z,58.50
2024-02-23T12:19:52.810Z,57.50
2024-02-23T12:22:26.566Z,57.60
2024-02-23T12:24:54.574Z,57.40
2024-02-23T12:27:22.770Z,56.80
2024-02-23T12:29:56.663Z,56.80
2024-02-23T12:32:24.498Z,57.40
2024-02-23T12:34:53.431Z,56.50
2024-02-23T12:37:23.666Z,57.20
2024-02-23T12:39:51.270Z,56.20
2024-02-23T12:42:20.323Z,57.00
2024-02-23T12:44:48.617Z,56.80
2024-02-23T12:47:16.211Z,57.80
2024-02-23T12:49:45.701Z,57.10
2024-02-23T12:52:14.120Z,57.90
2024-02-23T12:54:43.043Z,57.10
2024-02-23T12:57:10.645Z,56.90
2024-02-23T12:59:38.319Z,57.00
2024-02-23T13:02:08.930Z,57.40
2024-02-23T13:04:36.551Z,56.10
2024-02-23T13:07:04.182Z,57.00
2024-02-23T13:09:31.754Z,57.10
2024-02-23T13:11:59.444Z,56.40
2024-02-23T13:14:27.199Z,56.10
2024-02-23T13:16:54.977Z,56.40
2024-02-23T13:19:23.004Z,56.10
2024-02-23T13:21:50.645Z,55.70
2024-02-23T13:24:18.258Z,56.00
2024-02-23T13:26:46.159Z,56.00
2024-02-23T13:29:18.291Z,56.00
2024-02-23T13:31:45.878Z,55.50
2024-02-23T13:34:16.767Z,55.60
2024-02-23T13:36:45.130Z,56.00
2024-02-23T13:39:12.727Z,55.70
2024-02-23T13:41:40.404Z,55.40
2024-02-23T13:44:08.472Z,55.80
2024-02-23T13:46:42.089Z,55.50
2024-02-23T13:49:10.816Z,55.40
2024-02-23T13:51:38.668Z,56.40
2024-02-23T13:54:06.300Z,56.50
2024-02-23T13:56:34.026Z,56.00
2024-02-23T13:59:01.674Z,56.00
2024-02-23T14:01:29.278Z,56.00
2024-02-23T14:03:56.940Z,56.80
2024-02-23T14:06:25.293Z,57.40
2024-02-23T14:08:52.927Z,57.00
2024-02-23T14:11:20.789Z,56.50
2024-02-23T14:13:51.047Z,55.70
2024-02-23T14:16:19.570Z,56.40
2024-02-23T14:18:47.717Z,56.80
2024-02-23T14:21:16.062Z,55.60
2024-02-23T14:23:43.919Z,56.20
2024-02-23T14:26:12.001Z,56.30
2024-02-23T14:28:40.389Z,55.60
2024-02-23T14:31:08.092Z,55.40
2024-02-23T14:33:35.764Z,55.70
2024-02-23T14:36:04.060Z,55.50
2024-02-23T14:38:31.638Z,55.80
2024-02-23T14:41:00.064Z,55.30
2024-02-23T14:43:27.761Z,56.20
2024-02-23T14:45:55.400Z,56.50
2024-02-23T14:48:23.141Z,56.00
2024-02-23T14:50:50.822Z,56.50
2024-02-23T14:53:18.537Z,56.80
2024-02-23T14:55:46.134Z,56.70
2024-02-23T14:58:14.023Z,55.80
2024-02-23T15:00:42.053Z,56.20
2024-02-23T15:03:10.523Z,55.40
2024-02-23T15:05:38.283Z,55.60
2024-02-23T15:08:08.440Z,55.80
2024-02-23T15:10:36.200Z,56.80
2024-02-23T15:13:03.947Z,56.70
2024-02-23T15:15:31.567Z,56.80
2024-02-23T15:17:59.198Z,57.30
2024-02-23T15:20:26.975Z,57.30
2024-02-23T15:22:54.851Z,57.50
2024-02-23T15:25:22.459Z,57.90
2024-02-23T15:27:50.246Z,57.60
2024-02-23T15:30:18.161Z,57.90
2024-02-23T15:32:45.867Z,58.90
2024-02-23T15:35:13.624Z,59.20
2024-02-23T15:37:41.245Z,60.50
2024-02-23T15:40:09.912Z,62.10
2024-02-23T15:42:38.048Z,61.50
2024-02-23T15:45:09.855Z,61.20
2024-02-23T15:47:37.866Z,59.70
2024-02-23T15:50:22.891Z,59.60
2024-02-23T15:52:53.695Z,59.10
2024-02-23T15:55:21.350Z,59.30
2024-02-23T15:57:48.944Z,59.70
2024-02-23T16:00:17.975Z,60.10
2024-02-23T16:02:45.808Z,60.40
2024-02-23T16:05:13.439Z,60.20
2024-02-23T16:07:41.114Z,60.20
2024-02-23T16:10:10.297Z,60.60
2024-02-23T16:12:38.023Z,61.10
2024-02-23T16:15:07.979Z,61.70
2024-02-23T16:17:37.995Z,62.10
2024-02-23T16:20:06.734Z,62.60
2024-02-23T16:22:34.502Z,64.00
2024-02-23T16:25:02.176Z,64.20
2024-02-23T16:27:29.756Z,64.40
2024-02-23T16:29:57.446Z,64.20
2024-02-23T16:32:25.116Z,64.50
2024-02-23T16:34:52.790Z,65.20
2024-02-23T16:37:20.426Z,64.80
2024-02-23T16:39:48.134Z,65.00
2024-02-23T16:42:15.759Z,65.30
2024-02-23T16:44:43.393Z,65.50
2024-02-23T16:47:10.998Z,65.60
2024-02-23T16:49:38.725Z,66.00
2024-02-23T16:52:07.457Z,65.80
2024-02-23T16:54:35.191Z,66.10
2024-02-23T16:57:02.822Z,66.00
2024-02-23T16:59:30.418Z,65.90
2024-02-23T17:01:59.328Z,66.30
2024-02-23T17:04:27.059Z,66.20
2024-02-23T17:06:54.860Z,66.50
2024-02-23T17:09:22.447Z,66.60
2024-02-23T17:11:50.125Z,66.50
2024-02-23T17:14:17.875Z,66.30
2024-02-23T17:16:45.505Z,66.50
2024-02-23T17:19:13.795Z,66.60
2024-02-23T17:21:41.436Z,67.10
2024-02-23T17:24:09.209Z,67.20
2024-02-23T17:26:37.027Z,67.10
2024-02-23T17:29:04.883Z,67.70
2024-02-23T17:31:32.499Z,67.60
2024-02-23T17:34:00.118Z,68.10
2024-02-23T17:36:27.736Z,68.00
2024-02-23T17:38:55.325Z,68.20
2024-02-23T17:41:25.122Z,68.00
2024-02-23T17:43:53.013Z,67.90
2024-02-23T17:46:20.686Z,67.90
2024-02-23T17:48:48.440Z,67.90
2024-02-23T17:51:16.222Z,68.00
2024-02-23T17:53:43.981Z,68.00
2024-02-23T17:56:11.931Z,68.00
2024-02-23T17:58:39.598Z,68.20
2024-02-23T18:01:07.290Z,68.30
2024-02-23T18:03:34.955Z,68.30
2024-02-23T18:06:03.083Z,67.90
2024-02-23T18:08:30.649Z,68.00
2024-02-23T18:10:58.302Z,68.10
2024-02-23T18:13:25.915Z,68.00
2024-02-23T18:15:53.521Z,67.80
2024-02-23T18:18:21.664Z,67.60
2024-02-23T18:20:49.513Z,67.70
2024-02-23T18:23:17.656Z,67.70
2024-02-23T18:25:45.210Z,67.70
2024-02-23T18:28:12.769Z,68.10
2024-02-23T18:30:40.446Z,67.50
2024-02-23T18:33:08.099Z,67.30
2024-02-23T18:35:35.835Z,67.00
2024-02-23T18:38:03.533Z,66.80
2024-02-23T18:40:31.180Z,66.90
2024-02-23T18:42:58.740Z,66.80
2024-02-23T18:45:26.404Z,66.40
2024-02-23T18:47:54.163Z,66.80
2024-02-23T18:50:21.887Z,66.80
2024-02-23T18:52:49.548Z,66.70
2024-02-23T18:55:17.128Z,67.00
2024-02-23T18:57:44.702Z,67.00
2024-02-23T19:00:12.939Z,67.30
2024-02-23T19:02:40.549Z,67.50
2024-02-23T19:05:09.833Z,67.90
2024-02-23T19:07:37.777Z,67.90
2024-02-23T19:10:07.659Z,67.80
2024-02-23T19:12:37.105Z,67.60
2024-02-23T19:15:05.584Z,67.60
2024-02-23T19:18:23.032Z,67.70
2024-02-23T19:20:50.818Z,67.90
2024-02-23T19:23:18.755Z,67.60
2024-02-23T19:25:46.370Z,67.90
2024-02-23T19:28:13.972Z,67.50
2024-02-23T19:30:44.002Z,67.40
2024-02-23T19:33:11.945Z,67.40
2024-02-23T19:35:39.777Z,67.60
2024-02-23T19:38:07.403Z,67.80
2024-02-23T19:40:35.016Z,67.80
2024-02-23T19:43:02.657Z,68.10
2024-02-23T19:45:30.238Z,68.00
2024-02-23T19:47:57.974Z,68.00
2024-02-23T19:50:25.899Z,68.00
2024-02-23T19:52:53.491Z,67.70
2024-02-23T19:55:21.164Z,67.50
2024-02-23T19:57:48.785Z,67.40
2024-02-23T20:00:16.798Z,67.20
2024-02-23T20:02:44.559Z,67.60
2024-02-23T20:05:12.273Z,67.20
2024-02-23T20:07:39.920Z,67.60
2024-02-23T20:10:09.045Z,67.40
2024-02-23T20:12:36.769Z,66.90
2024-02-23T20:15:05.114Z,67.20
2024-02-23T20:17:35.043Z,67.60
2024-02-23T20:20:05.267Z,66.90
2024-02-23T20:22:32.816Z,67.10
2024-02-23T20:25:01.764Z,66.70
2024-02-23T20:27:29.436Z,66.60
2024-02-23T20:29:57.060Z,66.00
2024-02-23T20:32:30.001Z,66.50
2024-02-23T20:35:00.525Z,66.40
2024-02-23T20:37:29.820Z,66.60
2024-02-23T20:39:57.466Z,65.80
2024-02-23T20:42:25.059Z,66.30
2024-02-23T20:44:52.623Z,65.80
2024-02-23T20:47:20.261Z,66.00
2024-02-23T20:49:49.492Z,66.00
2024-02-23T20:52:19.081Z,66.10
2024-02-23T20:54:49.743Z,66.20
2024-02-23T20:57:18.546Z,66.10
2024-02-23T20:59:46.341Z,66.20
2024-02-23T21:02:20.267Z,66.60
2024-02-23T21:04:49.668Z,66.30
2024-02-23T21:07:18.898Z,66.10
2024-02-23T21:09:47.085Z,66.30
2024-02-23T21:12:15.234Z,66.30
2024-02-23T21:14:43.094Z,66.60
2024-02-23T21:17:10.746Z,66.30
2024-02-23T21:19:38.322Z,66.80
2024-02-23T21:22:06.256Z,67.10
2024-02-23T21:24:33.874Z,67.30
2024-02-23T21:27:01.462Z,67.60
2024-02-23T21:29:29.149Z,67.30
2024-02-23T21:31:56.928Z,67.40
2024-02-23T21:34:24.584Z,68.50
2024-02-23T21:36:52.160Z,68.10
2024-02-23T21:39:19.706Z,68.00
2024-02-23T21:41:47.476Z,68.10
2024-02-23T21:44:16.640Z,68.50
2024-02-23T21:46:44.736Z,68.40
2024-02-23T21:49:12.330Z,68.80
2024-02-23T21:51:39.947Z,68.70
2024-02-23T21:54:07.703Z,68.90
2024-02-23T21:56:35.291Z,68.80
2024-02-23T21:59:02.894Z,68.80
2024-02-23T22:01:32.301Z,68.90
2024-02-23T22:03:59.884Z,69.20
2024-02-23T22:06:27.489Z,68.70
2024-02-23T22:08:55.052Z,67.60
2024-02-23T22:11:22.724Z,67.30
2024-02-23T22:13:50.382Z,66.90
2024-02-23T22:16:17.925Z,66.50
2024-02-23T22:18:45.708Z,66.40
2024-02-23T22:21:13.532Z,66.50
2024-02-23T22:23:41.171Z,66.60
2024-02-23T22:26:08.847Z,66.30
2024-02-23T22:28:36.532Z,66.00
2024-02-23T22:31:04.153Z,66.50
2024-02-23T22:33:31.912Z,66.70
2024-02-23T22:35:59.500Z,66.10
2024-02-23T22:38:27.063Z,66.80
2024-02-23T22:40:54.635Z,66.50
2024-02-23T22:43:22.298Z,66.90
2024-02-23T22:45:52.348Z,67.30
2024-02-23T22:48:20.137Z,67.40
2024-02-23T22:50:47.886Z,67.50
2024-02-23T22:53:15.539Z,67.40
2024-02-23T22:55:43.103Z,67.10
2024-02-23T22:58:10.693Z,67.00
2024-02-23T23:00:38.292Z,67.10
2024-02-23T23:03:05.868Z,66.80
2024-02-23T23:05:33.578Z,66.90
2024-02-23T23:08:02.055Z,67.50
2024-02-23T23:10:29.801Z,67.00
2024-02-23T23:12:57.357Z,67.20
2024-02-23T23:15:24.944Z,67.30
2024-02-23T23:17:52.643Z,67.60
2024-02-23T23:20:20.669Z,67.60
2024-02-23T23:22:48.452Z,68.40
2024-02-23T23:25:16.620Z,68.20
2024-02-23T23:27:44.227Z,67.50
2024-02-23T23:30:12.844Z,67.10
2024-02-23T23:32:41.307Z,66.90
2024-02-23T23:35:09.437Z,66.60
2024-02-23T23:37:38.190Z,66.20
2024-02-23T23:40:06.603Z,66.30
2024-02-23T23:42:34.525Z,65.50
2024-02-23T23:45:02.233Z,65.60
2024-02-23T23:47:29.982Z,65.40
2024-02-23T23:49:57.563Z,65.70
2024-02-23T23:52:25.125Z,65.50
2024-02-23T23:54:52.744Z,65.80
2024-02-23T23:57:20.310Z,65.70
2024-02-23T23:59:48.053Z,65.70
